sensor_id;sensor_type;location;lat;lon;timestamp;temperature;humidity
22288;DHT22;11312;51.464;6.968;2024-03-23T00:52:43;8.30;99.90
22288;DHT22;11312;51.464;6.968;2024-03-23T00:55:11;8.30;99.90
22288;DHT22;11312;51.464;6.968;2024-03-23T00:57:37;8.20;99.90
22288;DHT22;11312;51.464;6.968;2024-03-23T01:00:05;8.10;99.90
22288;DHT22;11312;51.464;6.968;2024-03-23T01:02:32;8.20;99.90
22288;DHT22;11312;51.464;6.968;2024-03-23T01:04:58;8.10;99.90
22288;DHT22;11312;51.464;6.968;2024-03-23T01:07:23;8.20;99.90
22288;DHT22;11312;51.464;6.968;2024-03-23T01:09:49;8.10;99.90
22288;DHT22;11312;51.464;6.968;2024-03-23T01:12:15;8.10;99.90
22288;DHT22;11312;51.464;6.968;2024-03-23T01:14:41;8.00;99.90
22288;DHT22;11312;51.464;6.968;2024-03-23T01:17:07;8.00;99.90
22288;DHT22;11312;51.464;6.968;2024-03-23T01:19:32;7.90;99.90
22288;DHT22;11312;51.464;6.968;2024-03-23T01:21:58;7.80;99.90
22288;DHT22;11312;51.464;6.968;2024-03-23T01:24:24;7.70;99.90
22288;DHT22;11312;51.464;6.968;2024-03-23T01:26:56;7.70;99.90
22288;DHT22;11312;51.464;6.968;2024-03-23T01:29:21;7.60;99.90
22288;DHT22;11312;51.464;6.968;2024-03-23T01:31:47;7.70;99.90
22288;DHT22;11312;51.464;6.968;2024-03-23T01:34:13;7.70;99.90
22288;DHT22;11312;51.464;6.968;2024-03-23T01:36:38;7.70;99.90
22288;DHT22;11312;51.464;6.968;2024-03-23T01:39:04;7.60;99.90
22288;DHT22;11312;51.464;6.968;2024-03-23T01:41:30;7.60;99.90
22288;DHT22;11312;51.464;6.968;2024-03-23T01:43:55;7.60;99.90
22288;DHT22;11312;51.464;6.968;2024-03-23T01:46:22;7.50;99.90
22288;DHT22;11312;51.464;6.968;2024-03-23T01:48:47;7.40;99.90
22288;DHT22;11312;51.464;6.968;2024-03-23T01:51:13;7.40;99.90
22288;DHT22;11312;51.464;6.968;2024-03-23T01:53:40;7.50;99.90
22288;DHT22;11312;51.464;6.968;2024-03-23T01:56:06;7.40;99.90
22288;DHT22;11312;51.464;6.968;2024-03-23T01:58:32;7.50;99.90
22288;DHT22;11312;51.464;6.968;2024-03-23T02:00:59;7.50;99.90
22288;DHT22;11312;51.464;6.968;2024-03-23T02:03:28;7.40;99.90
22288;DHT22;11312;51.464;6.968;2024-03-23T02:05:54;7.60;99.90
22288;DHT22;11312;51.464;6.968;2024-03-23T02:08:21;7.40;99.90
22288;DHT22;11312;51.464;6.968;2024-03-23T02:10:50;7.50;99.90
22288;DHT22;11312;51.464;6.968;2024-03-23T02:13:16;7.20;99.90
22288;DHT22;11312;51.464;6.968;2024-03-23T02:15:42;7.20;99.90
22288;DHT22;11312;51.464;6.968;2024-03-23T02:18:08;7.40;99.90
22288;DHT22;11312;51.464;6.968;2024-03-23T02:20:34;7.40;99.90
22288;DHT22;11312;51.464;6.968;2024-03-23T02:23:00;7.50;99.90
22288;DHT22;11312;51.464;6.968;2024-03-23T02:25:26;7.40;99.90
22288;DHT22;11312;51.464;6.968;2024-03-23T02:27:51;7.50;99.90
22288;DHT22;11312;51.464;6.968;2024-03-23T02:30:20;7.50;99.90
22288;DHT22;11312;51.464;6.968;2024-03-23T02:32:45;7.40;99.90
22288;DHT22;11312;51.464;6.968;2024-03-23T02:35:11;7.50;99.90
22288;DHT22;11312;51.464;6.968;2024-03-23T02:37:37;7.50;99.90
22288;DHT22;11312;51.464;6.968;2024-03-23T02:40:03;7.40;99.90
22288;DHT22;11312;51.464;6.968;2024-03-23T02:42:29;7.00;99.90
22288;DHT22;11312;51.464;6.968;2024-03-23T02:44:54;7.10;99.90
22288;DHT22;11312;51.464;6.968;2024-03-23T02:47:20;7.00;99.90
22288;DHT22;11312;51.464;6.968;2024-03-23T02:49:45;7.10;99.90
22288;DHT22;11312;51.464;6.968;2024-03-23T02:52:11;7.20;99.90
22288;DHT22;11312;51.464;6.968;2024-03-23T02:54:37;7.20;99.90
22288;DHT22;11312;51.464;6.968;2024-03-23T02:57:02;7.20;99.90
22288;DHT22;11312;51.464;6.968;2024-03-23T02:59:28;7.40;99.90
22288;DHT22;11312;51.464;6.968;2024-03-23T03:01:53;7.40;99.90
22288;DHT22;11312;51.464;6.968;2024-03-23T03:04:19;7.40;99.90
22288;DHT22;11312;51.464;6.968;2024-03-23T03:06:48;7.00;99.90
22288;DHT22;11312;51.464;6.968;2024-03-23T03:09:14;6.90;99.90
22288;DHT22;11312;51.464;6.968;2024-03-23T03:11:40;7.10;99.90
22288;DHT22;11312;51.464;6.968;2024-03-23T03:14:05;7.20;99.90
22288;DHT22;11312;51.464;6.968;2024-03-23T03:16:33;7.10;99.90
22288;DHT22;11312;51.464;6.968;2024-03-23T03:18:58;7.30;99.90
22288;DHT22;11312;51.464;6.968;2024-03-23T03:21:24;7.10;99.90
22288;DHT22;11312;51.464;6.968;2024-03-23T03:23:50;7.10;99.90
22288;DHT22;11312;51.464;6.968;2024-03-23T03:26:19;7.20;99.90
22288;DHT22;11312;51.464;6.968;2024-03-23T03:28:44;7.10;99.90
22288;DHT22;11312;51.464;6.968;2024-03-23T03:31:14;6.80;99.90
22288;DHT22;11312;51.464;6.968;2024-03-23T03:33:40;6.60;99.90
22288;DHT22;11312;51.464;6.968;2024-03-23T03:36:06;6.80;99.90
22288;DHT22;11312;51.464;6.968;2024-03-23T03:38:31;7.00;99.90
22288;DHT22;11312;51.464;6.968;2024-03-23T03:40:58;6.80;99.90
22288;DHT22;11312;51.464;6.968;2024-03-23T03:43:24;7.00;99.90
22288;DHT22;11312;51.464;6.968;2024-03-23T03:45:57;6.90;99.90
22288;DHT22;11312;51.464;6.968;2024-03-23T03:48:23;6.90;99.90
22288;DHT22;11312;51.464;6.968;2024-03-23T03:50:49;6.80;99.90
22288;DHT22;11312;51.464;6.968;2024-03-23T03:53:15;6.70;99.90
22288;DHT22;11312;51.464;6.968;2024-03-23T03:55:40;6.60;99.90
22288;DHT22;11312;51.464;6.968;2024-03-23T03:58:06;6.50;99.90
22288;DHT22;11312;51.464;6.968;2024-03-23T04:00:31;6.50;99.90
22288;DHT22;11312;51.464;6.968;2024-03-23T04:02:57;6.80;99.90
22288;DHT22;11312;51.464;6.968;2024-03-23T04:05:24;7.00;99.90
22288;DHT22;11312;51.464;6.968;2024-03-23T04:07:50;6.50;99.90
22288;DHT22;11312;51.464;6.968;2024-03-23T04:10:15;6.60;99.90
22288;DHT22;11312;51.464;6.968;2024-03-23T04:12:42;6.30;99.90
22288;DHT22;11312;51.464;6.968;2024-03-23T04:15:08;6.30;99.90
22288;DHT22;11312;51.464;6.968;2024-03-23T04:17:34;6.30;99.90
22288;DHT22;11312;51.464;6.968;2024-03-23T04:20:01;6.60;99.90
22288;DHT22;11312;51.464;6.968;2024-03-23T04:22:27;6.30;99.90
22288;DHT22;11312;51.464;6.968;2024-03-23T04:24:56;6.30;99.90
22288;DHT22;11312;51.464;6.968;2024-03-23T04:27:25;6.40;99.90
22288;DHT22;11312;51.464;6.968;2024-03-23T04:29:52;6.30;99.90
22288;DHT22;11312;51.464;6.968;2024-03-23T04:32:18;6.20;99.90
22288;DHT22;11312;51.464;6.968;2024-03-23T04:34:44;6.40;99.90
22288;DHT22;11312;51.464;6.968;2024-03-23T04:37:11;6.30;99.90
22288;DHT22;11312;51.464;6.968;2024-03-23T04:39:37;6.40;99.90
22288;DHT22;11312;51.464;6.968;2024-03-23T04:42:03;6.30;99.90
22288;DHT22;11312;51.464;6.968;2024-03-23T04:44:31;6.20;99.90
22288;DHT22;11312;51.464;6.968;2024-03-23T04:46:57;6.10;99.90
22288;DHT22;11312;51.464;6.968;2024-03-23T04:49:23;6.10;99.90
22288;DHT22;11312;51.464;6.968;2024-03-23T04:51:48;6.20;99.90
22288;DHT22;11312;51.464;6.968;2024-03-23T04:54:14;6.20;99.90
22288;DHT22;11312;51.464;6.968;2024-03-23T04:56:40;6.20;99.90
22288;DHT22;11312;51.464;6.968;2024-03-23T04:59:06;6.20;99.90
22288;DHT22;11312;51.464;6.968;2024-03-23T05:01:32;6.40;99.90
22288;DHT22;11312;51.464;6.968;2024-03-23T05:03:58;6.50;99.90
22288;DHT22;11312;51.464;6.968;2024-03-23T05:06:24;6.30;99.90
22288;DHT22;11312;51.464;6.968;2024-03-23T05:08:51;6.30;99.90
22288;DHT22;11312;51.464;6.968;2024-03-23T05:11:17;6.50;99.90
22288;DHT22;11312;51.464;6.968;2024-03-23T05:13:43;6.50;99.90
22288;DHT22;11312;51.464;6.968;2024-03-23T05:16:08;6.70;99.90
22288;DHT22;11312;51.464;6.968;2024-03-23T05:18:35;6.40;99.90
22288;DHT22;11312;51.464;6.968;2024-03-23T05:21:01;6.60;99.90
22288;DHT22;11312;51.464;6.968;2024-03-23T05:23:28;6.50;99.90
22288;DHT22;11312;51.464;6.968;2024-03-23T05:25:54;6.40;99.90
22288;DHT22;11312;51.464;6.968;2024-03-23T05:28:20;6.30;99.90
22288;DHT22;11312;51.464;6.968;2024-03-23T05:30:54;6.40;99.90
22288;DHT22;11312;51.464;6.968;2024-03-23T05:33:20;6.50;99.90
22288;DHT22;11312;51.464;6.968;2024-03-23T05:35:47;6.50;99.90
22288;DHT22;11312;51.464;6.968;2024-03-23T05:38:21;6.40;99.90
22288;DHT22;11312;51.464;6.968;2024-03-23T05:41:07;6.40;99.90
22288;DHT22;11312;51.464;6.968;2024-03-23T05:43:32;6.40;99.90
22288;DHT22;11312;51.464;6.968;2024-03-23T05:45:59;6.30;99.90
22288;DHT22;11312;51.464;6.968;2024-03-23T05:48:26;6.30;99.90
22288;DHT22;11312;51.464;6.968;2024-03-23T05:50:52;6.30;99.90
22288;DHT22;11312;51.464;6.968;2024-03-23T05:53:18;6.50;99.90
22288;DHT22;11312;51.464;6.968;2024-03-23T05:55:48;6.30;99.90
22288;DHT22;11312;51.464;6.968;2024-03-23T05:58:17;6.40;99.90
22288;DHT22;11312;51.464;6.968;2024-03-23T06:00:44;6.40;99.90
22288;DHT22;11312;51.464;6.968;2024-03-23T06:03:10;6.50;99.90
22288;DHT22;11312;51.464;6.968;2024-03-23T06:05:37;6.40;99.90
22288;DHT22;11312;51.464;6.968;2024-03-23T06:08:03;6.50;99.90
22288;DHT22;11312;51.464;6.968;2024-03-23T06:10:29;6.40;99.90
22288;DHT22;11312;51.464;6.968;2024-03-23T06:12:54;6.30;99.90
22288;DHT22;11312;51.464;6.968;2024-03-23T06:15:22;6.40;99.90
22288;DHT22;11312;51.464;6.968;2024-03-23T06:17:48;6.40;99.90
22288;DHT22;11312;51.464;6.968;2024-03-23T06:20:14;6.50;99.90
22288;DHT22;11312;51.464;6.968;2024-03-23T06:22:39;6.30;99.90
22288;DHT22;11312;51.464;6.968;2024-03-23T06:25:05;6.30;99.90
22288;DHT22;11312;51.464;6.968;2024-03-23T06:27:32;6.30;99.90
22288;DHT22;11312;51.464;6.968;2024-03-23T06:29:58;6.20;99.90
22288;DHT22;11312;51.464;6.968;2024-03-23T06:32:24;6.30;99.90
22288;DHT22;11312;51.464;6.968;2024-03-23T06:34:51;6.20;99.90
22288;DHT22;11312;51.464;6.968;2024-03-23T06:37:16;6.30;99.90
22288;DHT22;11312;51.464;6.968;2024-03-23T06:39:42;6.60;99.90
22288;DHT22;11312;51.464;6.968;2024-03-23T06:42:08;6.70;99.90
22288;DHT22;11312;51.464;6.968;2024-03-23T06:44:33;6.50;99.90
22288;DHT22;11312;51.464;6.968;2024-03-23T06:46:59;6.70;99.90
22288;DHT22;11312;51.464;6.968;2024-03-23T06:49:25;6.80;99.90
22288;DHT22;11312;51.464;6.968;2024-03-23T06:51:51;7.00;99.90
22288;DHT22;11312;51.464;6.968;2024-03-23T06:54:17;7.10;99.90
22288;DHT22;11312;51.464;6.968;2024-03-23T06:56:46;7.50;99.90
22288;DHT22;11312;51.464;6.968;2024-03-23T06:59:12;7.60;99.90
22288;DHT22;11312;51.464;6.968;2024-03-23T07:01:37;7.80;99.90
22288;DHT22;11312;51.464;6.968;2024-03-23T07:04:03;8.40;99.90
22288;DHT22;11312;51.464;6.968;2024-03-23T07:06:30;8.80;99.90
22288;DHT22;11312;51.464;6.968;2024-03-23T07:08:56;8.80;99.90
22288;DHT22;11312;51.464;6.968;2024-03-23T07:11:23;9.30;99.90
22288;DHT22;11312;51.464;6.968;2024-03-23T07:13:54;9.50;99.90
22288;DHT22;11312;51.464;6.968;2024-03-23T07:16:21;10.10;99.90
22288;DHT22;11312;51.464;6.968;2024-03-23T07:18:46;9.50;99.90
22288;DHT22;11312;51.464;6.968;2024-03-23T07:21:12;9.30;99.90
22288;DHT22;11312;51.464;6.968;2024-03-23T07:23:44;8.90;99.90
22288;DHT22;11312;51.464;6.968;2024-03-23T07:26:12;9.20;99.90
22288;DHT22;11312;51.464;6.968;2024-03-23T07:28:38;10.10;99.90
22288;DHT22;11312;51.464;6.968;2024-03-23T07:31:11;11.00;99.90
22288;DHT22;11312;51.464;6.968;2024-03-23T07:33:42;10.80;99.90
22288;DHT22;11312;51.464;6.968;2024-03-23T07:36:08;11.10;99.90
22288;DHT22;11312;51.464;6.968;2024-03-23T07:38:35;11.20;99.90
22288;DHT22;11312;51.464;6.968;2024-03-23T07:41:08;11.90;99.90
22288;DHT22;11312;51.464;6.968;2024-03-23T07:43:37;11.30;99.90
22288;DHT22;11312;51.464;6.968;2024-03-23T07:46:04;11.30;99.90
22288;DHT22;11312;51.464;6.968;2024-03-23T07:48:31;11.20;99.90
22288;DHT22;11312;51.464;6.968;2024-03-23T07:53:34;11.90;99.90
22288;DHT22;11312;51.464;6.968;2024-03-23T07:56:06;12.10;99.90
22288;DHT22;11312;51.464;6.968;2024-03-23T07:58:32;11.70;99.90
22288;DHT22;11312;51.464;6.968;2024-03-23T08:01:04;12.10;99.90
22288;DHT22;11312;51.464;6.968;2024-03-23T08:03:30;10.90;99.90
22288;DHT22;11312;51.464;6.968;2024-03-23T08:05:56;10.80;99.90
22288;DHT22;11312;51.464;6.968;2024-03-23T08:08:21;11.10;99.90
22288;DHT22;11312;51.464;6.968;2024-03-23T08:10:48;11.40;99.90
22288;DHT22;11312;51.464;6.968;2024-03-23T08:13:14;13.10;99.90
22288;DHT22;11312;51.464;6.968;2024-03-23T08:15:40;12.10;99.90
22288;DHT22;11312;51.464;6.968;2024-03-23T08:18:05;13.20;99.90
22288;DHT22;11312;51.464;6.968;2024-03-23T08:20:31;13.50;99.90
22288;DHT22;11312;51.464;6.968;2024-03-23T08:22:56;13.80;99.90
22288;DHT22;11312;51.464;6.968;2024-03-23T08:25:22;11.50;99.90
22288;DHT22;11312;51.464;6.968;2024-03-23T08:27:48;11.00;99.90
22288;DHT22;11312;51.464;6.968;2024-03-23T08:30:13;12.00;99.90
22288;DHT22;11312;51.464;6.968;2024-03-23T08:32:39;11.20;99.90
22288;DHT22;11312;51.464;6.968;2024-03-23T08:35:05;11.90;99.90
22288;DHT22;11312;51.464;6.968;2024-03-23T08:37:31;11.60;99.90
22288;DHT22;11312;51.464;6.968;2024-03-23T08:39:57;11.30;99.90
22288;DHT22;11312;51.464;6.968;2024-03-23T08:42:22;11.10;99.90
22288;DHT22;11312;51.464;6.968;2024-03-23T08:44:48;11.90;99.90
22288;DHT22;11312;51.464;6.968;2024-03-23T08:47:17;11.20;99.90
22288;DHT22;11312;51.464;6.968;2024-03-23T08:49:44;10.20;99.90
22288;DHT22;11312;51.464;6.968;2024-03-23T08:52:10;10.10;99.90
22288;DHT22;11312;51.464;6.968;2024-03-23T08:54:35;9.80;99.90
22288;DHT22;11312;51.464;6.968;2024-03-23T08:57:01;9.40;99.90
22288;DHT22;11312;51.464;6.968;2024-03-23T08:59:27;9.30;99.90
22288;DHT22;11312;51.464;6.968;2024-03-23T09:01:53;8.90;99.90
22288;DHT22;11312;51.464;6.968;2024-03-23T09:04:18;8.90;99.90
22288;DHT22;11312;51.464;6.968;2024-03-23T09:06:44;8.70;99.90
22288;DHT22;11312;51.464;6.968;2024-03-23T09:09:10;8.50;99.90
22288;DHT22;11312;51.464;6.968;2024-03-23T09:11:36;8.70;99.90
22288;DHT22;11312;51.464;6.968;2024-03-23T09:14:03;9.20;99.90
22288;DHT22;11312;51.464;6.968;2024-03-23T09:16:29;8.90;1.00
22288;DHT22;11312;51.464;6.968;2024-03-23T09:18:55;9.20;1.00
22288;DHT22;11312;51.464;6.968;2024-03-23T09:21:22;9.90;99.90
22288;DHT22;11312;51.464;6.968;2024-03-23T09:23:48;9.70;96.30
22288;DHT22;11312;51.464;6.968;2024-03-23T09:26:14;10.50;1.00
22288;DHT22;11312;51.464;6.968;2024-03-23T09:28:40;11.30;99.90
22288;DHT22;11312;51.464;6.968;2024-03-23T09:31:07;11.70;99.90
22288;DHT22;11312;51.464;6.968;2024-03-23T09:33:33;12.60;1.00
22288;DHT22;11312;51.464;6.968;2024-03-23T09:36:03;13.10;1.00
22288;DHT22;11312;51.464;6.968;2024-03-23T09:38:29;11.60;99.90
22288;DHT22;11312;51.464;6.968;2024-03-23T09:40:55;11.00;1.00
22288;DHT22;11312;51.464;6.968;2024-03-23T09:43:21;10.60;1.00
22288;DHT22;11312;51.464;6.968;2024-03-23T09:45:47;10.90;99.90
22288;DHT22;11312;51.464;6.968;2024-03-23T09:48:14;10.70;1.00
22288;DHT22;11312;51.464;6.968;2024-03-23T09:50:44;10.40;99.90
22288;DHT22;11312;51.464;6.968;2024-03-23T09:53:14;10.80;1.00
22288;DHT22;11312;51.464;6.968;2024-03-23T09:55:43;12.00;1.00
22288;DHT22;11312;51.464;6.968;2024-03-23T09:58:17;13.30;99.90
22288;DHT22;11312;51.464;6.968;2024-03-23T10:00:43;14.60;99.90
22288;DHT22;11312;51.464;6.968;2024-03-23T10:03:09;14.80;78.40
22288;DHT22;11312;51.464;6.968;2024-03-23T10:05:37;15.10;1.00
22288;DHT22;11312;51.464;6.968;2024-03-23T10:08:23;13.00;99.90
22288;DHT22;11312;51.464;6.968;2024-03-23T10:10:48;13.90;1.00
22288;DHT22;11312;51.464;6.968;2024-03-23T10:13:35;14.40;1.00
22288;DHT22;11312;51.464;6.968;2024-03-23T10:16:02;15.00;1.00
22288;DHT22;11312;51.464;6.968;2024-03-23T10:18:27;14.80;1.00
22288;DHT22;11312;51.464;6.968;2024-03-23T10:23:36;12.60;99.90
22288;DHT22;11312;51.464;6.968;2024-03-23T10:26:17;12.50;1.00
22288;DHT22;11312;51.464;6.968;2024-03-23T10:29:10;12.90;99.90
22288;DHT22;11312;51.464;6.968;2024-03-23T10:31:38;12.50;1.00
22288;DHT22;11312;51.464;6.968;2024-03-23T10:34:06;13.90;1.00
22288;DHT22;11312;51.464;6.968;2024-03-23T10:36:34;15.50;99.90
22288;DHT22;11312;51.464;6.968;2024-03-23T10:39:02;15.00;1.00
22288;DHT22;11312;51.464;6.968;2024-03-23T10:41:28;15.90;99.90
22288;DHT22;11312;51.464;6.968;2024-03-23T10:43:56;14.90;99.90
22288;DHT22;11312;51.464;6.968;2024-03-23T10:46:23;12.10;1.00
22288;DHT22;11312;51.464;6.968;2024-03-23T10:48:49;11.30;99.90
22288;DHT22;11312;51.464;6.968;2024-03-23T10:51:15;9.70;1.00
22288;DHT22;11312;51.464;6.968;2024-03-23T10:53:41;7.30;99.90
22288;DHT22;11312;51.464;6.968;2024-03-23T10:56:09;6.70;1.00
22288;DHT22;11312;51.464;6.968;2024-03-23T10:58:40;6.80;1.00
22288;DHT22;11312;51.464;6.968;2024-03-23T11:01:07;6.80;1.00
22288;DHT22;11312;51.464;6.968;2024-03-23T11:03:37;6.40;1.00
22288;DHT22;11312;51.464;6.968;2024-03-23T11:06:05;6.60;99.90
22288;DHT22;11312;51.464;6.968;2024-03-23T11:08:38;7.00;99.90
22288;DHT22;11312;51.464;6.968;2024-03-23T11:11:22;7.10;99.90
22288;DHT22;11312;51.464;6.968;2024-03-23T11:13:50;7.20;1.00
22288;DHT22;11312;51.464;6.968;2024-03-23T11:16:27;8.70;1.00
22288;DHT22;11312;51.464;6.968;2024-03-23T11:22:01;9.40;1.00
22288;DHT22;11312;51.464;6.968;2024-03-23T11:24:27;10.60;99.90
22288;DHT22;11312;51.464;6.968;2024-03-23T11:26:52;10.80;17.60
22288;DHT22;11312;51.464;6.968;2024-03-23T11:29:18;11.20;1.00
22288;DHT22;11312;51.464;6.968;2024-03-23T11:31:47;11.60;99.90
22288;DHT22;11312;51.464;6.968;2024-03-23T11:34:13;11.30;1.00
22288;DHT22;11312;51.464;6.968;2024-03-23T11:36:40;11.30;40.80
22288;DHT22;11312;51.464;6.968;2024-03-23T11:39:19;12.10;99.90
22288;DHT22;11312;51.464;6.968;2024-03-23T11:41:53;13.90;99.90
22288;DHT22;11312;51.464;6.968;2024-03-23T11:44:20;13.80;99.90
22288;DHT22;11312;51.464;6.968;2024-03-23T11:46:47;14.90;1.00
22288;DHT22;11312;51.464;6.968;2024-03-23T11:49:24;14.60;99.90
22288;DHT22;11312;51.464;6.968;2024-03-23T11:51:51;13.50;1.00
22288;DHT22;11312;51.464;6.968;2024-03-23T11:54:20;13.70;1.00
22288;DHT22;11312;51.464;6.968;2024-03-23T11:57:02;13.40;99.90
22288;DHT22;11312;51.464;6.968;2024-03-23T12:02:12;14.10;1.00
22288;DHT22;11312;51.464;6.968;2024-03-23T12:04:41;13.50;1.00
22288;DHT22;11312;51.464;6.968;2024-03-23T12:07:18;12.20;99.90
22288;DHT22;11312;51.464;6.968;2024-03-23T12:09:45;12.40;99.90
22288;DHT22;11312;51.464;6.968;2024-03-23T12:12:17;11.30;1.00
22288;DHT22;11312;51.464;6.968;2024-03-23T12:14:44;10.20;1.00
22288;DHT22;11312;51.464;6.968;2024-03-23T12:17:13;10.10;99.90
22288;DHT22;11312;51.464;6.968;2024-03-23T12:19:40;10.00;1.00
22288;DHT22;11312;51.464;6.968;2024-03-23T12:22:08;9.70;1.00
22288;DHT22;11312;51.464;6.968;2024-03-23T12:24:34;9.70;1.00
22288;DHT22;11312;51.464;6.968;2024-03-23T12:27:03;11.40;99.90
22288;DHT22;11312;51.464;6.968;2024-03-23T12:29:34;15.20;99.90
22288;DHT22;11312;51.464;6.968;2024-03-23T12:32:03;16.80;99.90
22288;DHT22;11312;51.464;6.968;2024-03-23T12:34:29;12.80;99.90
22288;DHT22;11312;51.464;6.968;2024-03-23T12:36:56;13.50;1.00
22288;DHT22;11312;51.464;6.968;2024-03-23T12:39:22;14.40;28.40
22288;DHT22;11312;51.464;6.968;2024-03-23T12:41:48;15.00;55.70
22288;DHT22;11312;51.464;6.968;2024-03-23T12:44:14;12.80;99.90
22288;DHT22;11312;51.464;6.968;2024-03-23T12:46:41;12.10;99.90
22288;DHT22;11312;51.464;6.968;2024-03-23T12:49:07;11.60;99.90
22288;DHT22;11312;51.464;6.968;2024-03-23T12:51:33;10.70;1.00
22288;DHT22;11312;51.464;6.968;2024-03-23T12:53:59;15.20;1.00
22288;DHT22;11312;51.464;6.968;2024-03-23T12:56:25;15.60;99.90
22288;DHT22;11312;51.464;6.968;2024-03-23T12:58:51;13.50;2.30
22288;DHT22;11312;51.464;6.968;2024-03-23T13:01:18;12.20;1.00
22288;DHT22;11312;51.464;6.968;2024-03-23T13:03:46;10.90;99.90
22288;DHT22;11312;51.464;6.968;2024-03-23T13:06:12;10.10;99.90
22288;DHT22;11312;51.464;6.968;2024-03-23T13:08:38;9.20;99.90
22288;DHT22;11312;51.464;6.968;2024-03-23T13:11:06;9.10;99.90
22288;DHT22;11312;51.464;6.968;2024-03-23T13:13:32;9.00;99.90
22288;DHT22;11312;51.464;6.968;2024-03-23T13:15:58;9.60;99.90
22288;DHT22;11312;51.464;6.968;2024-03-23T13:18:24;11.00;99.90
22288;DHT22;11312;51.464;6.968;2024-03-23T13:20:49;9.60;99.90
22288;DHT22;11312;51.464;6.968;2024-03-23T13:23:15;9.10;99.90
22288;DHT22;11312;51.464;6.968;2024-03-23T13:25:49;8.90;99.90
22288;DHT22;11312;51.464;6.968;2024-03-23T13:28:14;8.50;99.90
22288;DHT22;11312;51.464;6.968;2024-03-23T13:30:50;8.00;99.90
22288;DHT22;11312;51.464;6.968;2024-03-23T13:33:16;7.50;99.90
22288;DHT22;11312;51.464;6.968;2024-03-23T13:35:52;10.20;99.90
22288;DHT22;11312;51.464;6.968;2024-03-23T13:38:20;12.70;99.90
22288;DHT22;11312;51.464;6.968;2024-03-23T13:40:52;11.80;99.90
22288;DHT22;11312;51.464;6.968;2024-03-23T13:43:18;11.10;99.90
22288;DHT22;11312;51.464;6.968;2024-03-23T13:45:45;10.90;99.90
22288;DHT22;11312;51.464;6.968;2024-03-23T13:48:11;10.50;99.90
22288;DHT22;11312;51.464;6.968;2024-03-23T13:50:37;10.00;99.90
22288;DHT22;11312;51.464;6.968;2024-03-23T13:53:03;9.80;1.00
22288;DHT22;11312;51.464;6.968;2024-03-23T13:55:29;9.40;1.00
22288;DHT22;11312;51.464;6.968;2024-03-23T13:57:55;9.70;99.90
22288;DHT22;11312;51.464;6.968;2024-03-23T14:00:20;11.40;99.90
22288;DHT22;11312;51.464;6.968;2024-03-23T14:02:46;14.90;99.90
22288;DHT22;11312;51.464;6.968;2024-03-23T14:05:11;15.60;99.90
22288;DHT22;11312;51.464;6.968;2024-03-23T14:07:37;17.50;99.90
22288;DHT22;11312;51.464;6.968;2024-03-23T14:10:06;18.50;89.00
22288;DHT22;11312;51.464;6.968;2024-03-23T14:12:32;18.90;84.30
22288;DHT22;11312;51.464;6.968;2024-03-23T14:14:58;16.60;85.00
22288;DHT22;11312;51.464;6.968;2024-03-23T14:17:23;17.90;87.80
22288;DHT22;11312;51.464;6.968;2024-03-23T14:19:51;18.70;85.60
22288;DHT22;11312;51.464;6.968;2024-03-23T14:22:17;16.40;83.00
22288;DHT22;11312;51.464;6.968;2024-03-23T14:24:45;15.20;87.90
22288;DHT22;11312;51.464;6.968;2024-03-23T14:27:10;13.90;92.30
22288;DHT22;11312;51.464;6.968;2024-03-23T14:29:36;14.70;92.50
22288;DHT22;11312;51.464;6.968;2024-03-23T14:32:02;13.40;95.20
22288;DHT22;11312;51.464;6.968;2024-03-23T14:34:27;12.10;95.20
22288;DHT22;11312;51.464;6.968;2024-03-23T14:36:53;11.40;1.00
22288;DHT22;11312;51.464;6.968;2024-03-23T14:39:23;9.90;1.00
22288;DHT22;11312;51.464;6.968;2024-03-23T14:41:50;10.30;1.00
22288;DHT22;11312;51.464;6.968;2024-03-23T14:44:16;14.00;46.00
22288;DHT22;11312;51.464;6.968;2024-03-23T14:46:41;14.90;99.00
22288;DHT22;11312;51.464;6.968;2024-03-23T14:49:07;15.00;99.00
22288;DHT22;11312;51.464;6.968;2024-03-23T14:51:33;14.80;97.30
22288;DHT22;11312;51.464;6.968;2024-03-23T14:53:59;13.70;99.90
22288;DHT22;11312;51.464;6.968;2024-03-23T14:56:24;11.90;99.90
22288;DHT22;11312;51.464;6.968;2024-03-23T14:58:52;10.60;1.00
22288;DHT22;11312;51.464;6.968;2024-03-23T15:01:18;10.50;99.90
22288;DHT22;11312;51.464;6.968;2024-03-23T15:03:44;10.20;99.90
22288;DHT22;11312;51.464;6.968;2024-03-23T15:06:10;10.10;99.90
22288;DHT22;11312;51.464;6.968;2024-03-23T15:08:36;10.10;99.90
22288;DHT22;11312;51.464;6.968;2024-03-23T15:11:03;10.00;99.90
22288;DHT22;11312;51.464;6.968;2024-03-23T15:13:35;9.80;99.90
22288;DHT22;11312;51.464;6.968;2024-03-23T15:16:02;9.80;99.90
22288;DHT22;11312;51.464;6.968;2024-03-23T15:18:31;10.70;99.90
22288;DHT22;11312;51.464;6.968;2024-03-23T15:20:59;11.20;99.90
22288;DHT22;11312;51.464;6.968;2024-03-23T15:23:31;11.40;99.90
22288;DHT22;11312;51.464;6.968;2024-03-23T15:25:58;11.80;99.90
22288;DHT22;11312;51.464;6.968;2024-03-23T15:28:25;11.30;99.90
22288;DHT22;11312;51.464;6.968;2024-03-23T15:31:09;11.30;99.90
22288;DHT22;11312;51.464;6.968;2024-03-23T15:33:36;11.00;99.90
22288;DHT22;11312;51.464;6.968;2024-03-23T15:36:02;10.30;99.90
22288;DHT22;11312;51.464;6.968;2024-03-23T15:38:28;10.00;99.90
22288;DHT22;11312;51.464;6.968;2024-03-23T15:40:55;10.30;99.90
22288;DHT22;11312;51.464;6.968;2024-03-23T15:43:20;10.40;99.90
22288;DHT22;11312;51.464;6.968;2024-03-23T15:45:56;10.60;99.90
22288;DHT22;11312;51.464;6.968;2024-03-23T15:48:22;10.40;99.90
22288;DHT22;11312;51.464;6.968;2024-03-23T15:50:52;10.30;99.90
22288;DHT22;11312;51.464;6.968;2024-03-23T15:53:19;10.10;99.90
22288;DHT22;11312;51.464;6.968;2024-03-23T15:55:45;9.90;99.90
22288;DHT22;11312;51.464;6.968;2024-03-23T15:58:11;9.60;99.90
22288;DHT22;11312;51.464;6.968;2024-03-23T16:00:37;9.30;99.90
22288;DHT22;11312;51.464;6.968;2024-03-23T16:03:02;9.50;99.90
22288;DHT22;11312;51.464;6.968;2024-03-23T16:05:28;9.60;99.90
22288;DHT22;11312;51.464;6.968;2024-03-23T16:07:54;9.50;99.90
22288;DHT22;11312;51.464;6.968;2024-03-23T16:10:20;9.70;99.90
22288;DHT22;11312;51.464;6.968;2024-03-23T16:12:46;9.20;99.90
22288;DHT22;11312;51.464;6.968;2024-03-23T16:15:11;9.20;99.90
22288;DHT22;11312;51.464;6.968;2024-03-23T16:17:37;8.90;99.90
22288;DHT22;11312;51.464;6.968;2024-03-23T16:20:05;9.20;99.90
22288;DHT22;11312;51.464;6.968;2024-03-23T16:22:35;9.20;99.90
22288;DHT22;11312;51.464;6.968;2024-03-23T16:25:01;9.10;99.90
22288;DHT22;11312;51.464;6.968;2024-03-23T16:27:27;8.90;99.90
22288;DHT22;11312;51.464;6.968;2024-03-23T16:29:52;8.90;99.90
22288;DHT22;11312;51.464;6.968;2024-03-23T16:32:18;8.80;99.90
22288;DHT22;11312;51.464;6.968;2024-03-23T16:34:44;8.80;99.90
22288;DHT22;11312;51.464;6.968;2024-03-23T16:37:09;8.80;99.90
22288;DHT22;11312;51.464;6.968;2024-03-23T16:39:36;8.70;99.90
22288;DHT22;11312;51.464;6.968;2024-03-23T16:42:02;8.50;99.90
22288;DHT22;11312;51.464;6.968;2024-03-23T16:44:29;8.40;99.90